Time;durP1;ratioP1;P1;durP2;ratioP2;P2;SDS_P1;SDS_P2;PMS_P1;PMS_P2;Temp;Humidity;BMP_temperature;BMP_pressure;BME280_temperature;BME280_humidity;BME280_pressure;Samples;Min_cycle;Max_cycle;Signal;HPM_P1;HPM_P2
2022/05/17 00:01:49;;;;;;;5.65;1.52;;;;;;;;;;5041006;28;20048;-51
2022/05/17 00:04:15;;;;;;;2.67;1.13;;;;;;;;;;5054991;28;20029;-55
2022/05/17 00:06:41;;;;;;;2.55;0.82;;;;;;;;;;5053384;28;20362;-55
2022/05/17 00:09:07;;;;;;;3.53;1.05;;;;;;;;;;5039456;28;20017;-53
2022/05/17 00:11:33;;;;;;;4.32;1.60;;;;;;;;;;5058748;28;20483;-52
2022/05/17 00:13:59;;;;;;;2.20;1.00;;;;;;;;;;5057160;28;20037;-55
2022/05/17 00:16:26;;;;;;;3.72;1.48;;;;;;;;;;5044439;28;20026;-54
2022/05/17 00:18:52;;;;;;;3.58;1.13;;;;;;;;;;5058052;28;20107;-55
2022/05/17 00:21:18;;;;;;;4.07;1.50;;;;;;;;;;5054301;28;20031;-54
2022/05/17 00:23:45;;;;;;;3.13;1.05;;;;;;;;;;5049516;28;20029;-52
2022/05/17 00:26:11;;;;;;;2.25;1.10;;;;;;;;;;5058569;28;20024;-52
2022/05/17 00:28:38;;;;;;;3.95;1.20;;;;;;;;;;5059578;28;20570;-54
2022/05/17 00:31:06;;;;;;;2.72;1.00;;;;;;;;;;5052905;28;20395;-55
2022/05/17 00:33:32;;;;;;;4.68;1.25;;;;;;;;;;5043708;28;20039;-54
2022/05/17 00:35:58;;;;;;;4.90;1.23;;;;;;;;;;5049491;28;20033;-54
2022/05/17 00:38:25;;;;;;;3.42;1.10;;;;;;;;;;5048684;28;20109;-54
2022/05/17 00:40:51;;;;;;;4.10;1.50;;;;;;;;;;5042472;28;20116;-50
2022/05/17 00:46:38;;;;;;;3.85;1.10;;;;;;;;;;5050109;28;20396;-54
2022/05/17 00:49:06;;;;;;;2.65;1.30;;;;;;;;;;5045417;28;20552;-54
2022/05/17 00:51:32;;;;;;;2.60;1.35;;;;;;;;;;5050600;28;20144;-52
2022/05/17 00:54:05;;;;;;;3.75;1.30;;;;;;;;;;5058601;28;20059;-55
2022/05/17 00:56:33;;;;;;;2.60;1.20;;;;;;;;;;5044733;28;20025;-54
2022/05/17 00:59:00;;;;;;;2.97;1.38;;;;;;;;;;5047902;28;20459;-53
2022/05/17 01:01:27;;;;;;;1.95;1.02;;;;;;;;;;5046889;28;20025;-51
2022/05/17 01:03:54;;;;;;;2.30;1.48;;;;;;;;;;5037715;28;20065;-51
2022/05/17 01:06:21;;;;;;;1.88;1.30;;;;;;;;;;5044365;28;20040;-50
2022/05/17 01:08:47;;;;;;;2.38;1.13;;;;;;;;;;5042516;28;20033;-52
2022/05/17 01:11:13;;;;;;;3.88;1.67;;;;;;;;;;5052993;28;20021;-51
2022/05/17 01:16:25;;;;;;;2.85;1.30;;;;;;;;;;5050633;28;20154;-52
2022/05/17 01:18:51;;;;;;;3.25;1.33;;;;;;;;;;5051920;28;20037;-53
2022/05/17 01:21:17;;;;;;;7.32;1.50;;;;;;;;;;5036620;28;20053;-53
2022/05/17 01:23:44;;;;;;;2.20;1.10;;;;;;;;;;5054655;28;20138;-50
2022/05/17 01:26:13;;;;;;;3.08;1.25;;;;;;;;;;5048818;28;20112;-51
2022/05/17 01:28:39;;;;;;;1.70;1.15;;;;;;;;;;5044965;28;20465;-52
2022/05/17 01:31:06;;;;;;;3.28;1.50;;;;;;;;;;5045660;28;20479;-50
2022/05/17 01:33:33;;;;;;;3.15;1.73;;;;;;;;;;5046394;28;20053;-50
2022/05/17 01:35:59;;;;;;;5.20;1.85;;;;;;;;;;5057941;28;20033;-50
2022/05/17 01:38:26;;;;;;;3.72;2.05;;;;;;;;;;5050499;28;20031;-52
2022/05/17 01:40:52;;;;;;;2.50;1.40;;;;;;;;;;5053523;28;20040;-50
2022/05/17 01:43:18;;;;;;;4.20;1.63;;;;;;;;;;5059823;28;20408;-50
2022/05/17 01:45:44;;;;;;;4.80;2.00;;;;;;;;;;5048331;28;20026;-51
2022/05/17 01:48:10;;;;;;;4.50;1.88;;;;;;;;;;5036501;28;20021;-51
2022/05/17 01:50:36;;;;;;;5.95;1.88;;;;;;;;;;5048082;28;20031;-52
2022/05/17 01:53:03;;;;;;;6.82;2.00;;;;;;;;;;5051868;28;20056;-51
2022/05/17 01:55:29;;;;;;;6.53;1.77;;;;;;;;;;5053405;28;20047;-53
2022/05/17 01:57:55;;;;;;;3.63;2.25;;;;;;;;;;5052624;28;20543;-51
2022/05/17 02:00:23;;;;;;;5.43;1.75;;;;;;;;;;5040411;28;20032;-52
2022/05/17 02:02:50;;;;;;;4.30;2.00;;;;;;;;;;5039695;28;20059;-51
2022/05/17 02:05:16;;;;;;;4.65;1.90;;;;;;;;;;5045175;28;20024;-53
2022/05/17 02:07:42;;;;;;;4.28;2.17;;;;;;;;;;5036505;28;20030;-51
2022/05/17 02:10:09;;;;;;;2.53;1.63;;;;;;;;;;5034993;28;20017;-51
2022/05/17 02:12:35;;;;;;;7.00;2.00;;;;;;;;;;5054479;28;20470;-51
2022/05/17 02:15:01;;;;;;;4.93;1.85;;;;;;;;;;5045509;28;20160;-53
2022/05/17 02:17:27;;;;;;;3.55;1.77;;;;;;;;;;5046649;28;20082;-51
2022/05/17 02:19:53;;;;;;;2.45;1.70;;;;;;;;;;5046973;28;20506;-51
2022/05/17 02:22:19;;;;;;;4.20;1.73;;;;;;;;;;5038985;28;20052;-50
2022/05/17 02:24:45;;;;;;;4.35;1.65;;;;;;;;;;5054018;28;20039;-52
2022/05/17 02:27:12;;;;;;;2.20;1.80;;;;;;;;;;5041876;28;20033;-52
2022/05/17 02:29:38;;;;;;;3.15;1.83;;;;;;;;;;5038069;28;20034;-54
2022/05/17 02:32:04;;;;;;;4.25;2.35;;;;;;;;;;5044950;28;20086;-51
2022/05/17 02:34:31;;;;;;;3.17;1.73;;;;;;;;;;5046671;28;20475;-54
2022/05/17 02:36:57;;;;;;;3.50;2.22;;;;;;;;;;5045865;28;20083;-53
2022/05/17 02:39:23;;;;;;;3.08;1.98;;;;;;;;;;5041817;28;20124;-51
2022/05/17 02:41:49;;;;;;;5.95;2.38;;;;;;;;;;5057536;28;20025;-54
2022/05/17 02:44:15;;;;;;;5.57;2.08;;;;;;;;;;5048471;28;20025;-51
2022/05/17 02:46:41;;;;;;;3.13;1.70;;;;;;;;;;5045169;28;20033;-51
2022/05/17 02:49:07;;;;;;;5.90;2.47;;;;;;;;;;5037488;28;20021;-51
2022/05/17 02:51:34;;;;;;;4.93;2.05;;;;;;;;;;5048366;28;21671;-50
2022/05/17 02:54:00;;;;;;;5.57;2.22;;;;;;;;;;5055287;28;20104;-50
2022/05/17 02:56:26;;;;;;;6.85;2.05;;;;;;;;;;5034398;28;20025;-50
2022/05/17 02:58:52;;;;;;;5.13;2.15;;;;;;;;;;5046624;28;20393;-50
2022/05/17 03:01:18;;;;;;;3.88;2.03;;;;;;;;;;5039670;28;20222;-51
2022/05/17 03:03:44;;;;;;;5.72;2.53;;;;;;;;;;5033682;28;20038;-50
2022/05/17 03:06:11;;;;;;;5.13;2.45;;;;;;;;;;5044021;28;20033;-50
2022/05/17 03:08:37;;;;;;;7.47;2.15;;;;;;;;;;5054167;28;20056;-50
2022/05/17 03:11:05;;;;;;;4.10;1.88;;;;;;;;;;5046454;28;20500;-52
2022/05/17 03:13:31;;;;;;;5.22;2.20;;;;;;;;;;5046895;28;20029;-50
2022/05/17 03:15:57;;;;;;;5.47;2.85;;;;;;;;;;5037223;28;20035;-49
2022/05/17 03:18:23;;;;;;;3.88;1.88;;;;;;;;;;5047209;28;20021;-50
2022/05/17 03:20:49;;;;;;;5.72;2.55;;;;;;;;;;5041896;28;20086;-50
2022/05/17 03:23:15;;;;;;;6.25;2.25;;;;;;;;;;5051289;28;20104;-51
2022/05/17 03:25:41;;;;;;;6.82;3.17;;;;;;;;;;5047827;28;20107;-50
2022/05/17 03:28:07;;;;;;;4.30;2.45;;;;;;;;;;5057205;28;20021;-50
2022/05/17 03:30:33;;;;;;;5.80;2.15;;;;;;;;;;5049341;28;20492;-51
2022/05/17 03:32:59;;;;;;;5.53;2.50;;;;;;;;;;5066125;28;20031;-50
2022/05/17 03:35:25;;;;;;;5.25;2.30;;;;;;;;;;5055260;28;20411;-50
2022/05/17 03:37:51;;;;;;;7.57;2.95;;;;;;;;;;5058904;28;20392;-49
2022/05/17 03:40:18;;;;;;;4.55;2.67;;;;;;;;;;5040431;28;20036;-50
2022/05/17 03:42:44;;;;;;;9.68;3.03;;;;;;;;;;5050570;28;20563;-50
2022/05/17 03:45:10;;;;;;;5.50;2.10;;;;;;;;;;5048442;28;20074;-49
2022/05/17 03:47:36;;;;;;;6.43;2.25;;;;;;;;;;5057769;28;20052;-49
2022/05/17 03:50:03;;;;;;;9.88;2.88;;;;;;;;;;5045069;28;20056;-51
2022/05/17 03:52:31;;;;;;;5.78;2.70;;;;;;;;;;5050012;28;20045;-51
2022/05/17 03:54:58;;;;;;;7.78;2.33;;;;;;;;;;5050430;28;20033;-49
2022/05/17 03:57:24;;;;;;;6.97;2.50;;;;;;;;;;5053423;28;20517;-50
2022/05/17 03:59:50;;;;;;;5.50;2.67;;;;;;;;;;5034998;28;20037;-51
2022/05/17 04:02:16;;;;;;;4.55;2.60;;;;;;;;;;5048102;28;20033;-49
2022/05/17 04:04:42;;;;;;;6.13;2.70;;;;;;;;;;5045987;28;20037;-50
2022/05/17 04:07:08;;;;;;;6.10;2.30;;;;;;;;;;5047963;28;20500;-49
2022/05/17 04:09:34;;;;;;;7.13;3.22;;;;;;;;;;5052761;28;20037;-50
2022/05/17 04:12:00;;;;;;;4.78;2.53;;;;;;;;;;5050031;28;20131;-50
2022/05/17 04:14:26;;;;;;;6.43;2.67;;;;;;;;;;5039588;28;20033;-50
2022/05/17 04:16:52;;;;;;;5.65;2.83;;;;;;;;;;5052886;28;20493;-50
2022/05/17 04:19:18;;;;;;;5.90;3.20;;;;;;;;;;5045034;28;20028;-50
2022/05/17 04:21:44;;;;;;;8.27;2.90;;;;;;;;;;5043716;28;20059;-49
2022/05/17 04:24:11;;;;;;;3.85;2.50;;;;;;;;;;5048323;28;20033;-50
2022/05/17 04:26:37;;;;;;;7.28;3.03;;;;;;;;;;5041470;28;20033;-53
2022/05/17 04:29:04;;;;;;;5.55;2.72;;;;;;;;;;5048443;28;20040;-50
2022/05/17 04:31:30;;;;;;;4.97;2.80;;;;;;;;;;5039192;28;20029;-50
2022/05/17 04:33:56;;;;;;;7.07;2.63;;;;;;;;;;5049724;28;20017;-51
2022/05/17 04:36:22;;;;;;;6.70;2.63;;;;;;;;;;5041173;28;20064;-51
2022/05/17 04:38:49;;;;;;;5.22;2.78;;;;;;;;;;5049973;28;20251;-51
2022/05/17 04:41:15;;;;;;;7.93;3.08;;;;;;;;;;5047894;28;20039;-49
2022/05/17 04:43:41;;;;;;;6.97;3.38;;;;;;;;;;5045493;28;20021;-50
2022/05/17 04:46:09;;;;;;;9.20;3.15;;;;;;;;;;5043876;28;20032;-50
2022/05/17 04:48:36;;;;;;;5.25;2.97;;;;;;;;;;5050871;28;20021;-49
2022/05/17 04:51:08;;;;;;;5.20;2.78;;;;;;;;;;5041301;28;20165;-53
2022/05/17 04:53:35;;;;;;;7.63;2.85;;;;;;;;;;5045056;28;20053;-51
2022/05/17 04:56:01;;;;;;;6.35;3.15;;;;;;;;;;5050955;28;20033;-50
2022/05/17 04:58:27;;;;;;;5.65;2.97;;;;;;;;;;5053204;28;20053;-51
2022/05/17 05:00:54;;;;;;;7.03;2.92;;;;;;;;;;5039297;28;20029;-49
2022/05/17 05:03:20;;;;;;;6.60;2.67;;;;;;;;;;5048122;28;20040;-50
2022/05/17 05:05:46;;;;;;;8.48;3.38;;;;;;;;;;5048701;28;20396;-49
2022/05/17 05:08:12;;;;;;;7.10;3.20;;;;;;;;;;5044579;28;20029;-50
2022/05/17 05:10:37;;;;;;;7.60;3.40;;;;;;;;;;5049643;28;20036;-50
2022/05/17 05:13:04;;;;;;;7.72;3.58;;;;;;;;;;5051886;28;20035;-50
2022/05/17 05:15:31;;;;;;;7.72;3.50;;;;;;;;;;5045145;28;20039;-49
2022/05/17 05:17:58;;;;;;;5.97;3.25;;;;;;;;;;5047937;28;20029;-52
2022/05/17 05:20:24;;;;;;;7.72;3.30;;;;;;;;;;5034338;28;20032;-50
2022/05/17 05:22:50;;;;;;;7.18;3.85;;;;;;;;;;5042021;28;20120;-50
2022/05/17 05:25:16;;;;;;;8.70;3.80;;;;;;;;;;5045340;28;20025;-50
2022/05/17 05:27:42;;;;;;;5.70;3.05;;;;;;;;;;5058852;28;20017;-49
2022/05/17 05:30:10;;;;;;;6.07;3.30;;;;;;;;;;5049197;28;20465;-50
2022/05/17 05:32:36;;;;;;;10.52;3.45;;;;;;;;;;5046768;28;20033;-52
2022/05/17 05:35:03;;;;;;;8.48;3.42;;;;;;;;;;5048786;28;20436;-50
2022/05/17 05:37:29;;;;;;;7.43;3.88;;;;;;;;;;5047930;28;20029;-50
2022/05/17 05:39:55;;;;;;;8.20;3.55;;;;;;;;;;5041751;28;20476;-49
2022/05/17 05:42:21;;;;;;;7.45;3.22;;;;;;;;;;5047253;28;20036;-51
2022/05/17 05:44:47;;;;;;;7.38;3.35;;;;;;;;;;5041671;28;20046;-49
2022/05/17 05:47:14;;;;;;;8.02;2.95;;;;;;;;;;5051959;28;20021;-50
2022/05/17 05:49:40;;;;;;;5.32;3.10;;;;;;;;;;5053222;28;20028;-50
2022/05/17 05:52:06;;;;;;;7.22;3.47;;;;;;;;;;5039419;28;20167;-50
2022/05/17 05:54:32;;;;;;;7.25;3.63;;;;;;;;;;5043175;28;20033;-51
2022/05/17 05:56:59;;;;;;;11.45;3.95;;;;;;;;;;5036540;28;20021;-50
2022/05/17 05:59:28;;;;;;;6.00;2.97;;;;;;;;;;5039153;28;20087;-50
2022/05/17 06:01:54;;;;;;;5.78;3.15;;;;;;;;;;5037989;28;20048;-50
2022/05/17 06:04:20;;;;;;;11.63;3.88;;;;;;;;;;5038722;28;20033;-50
2022/05/17 06:06:46;;;;;;;6.72;3.53;;;;;;;;;;5034318;28;20091;-50
2022/05/17 06:09:12;;;;;;;7.40;3.38;;;;;;;;;;5049723;28;20024;-52
2022/05/17 06:11:38;;;;;;;8.65;3.63;;;;;;;;;;5048099;28;20112;-49
2022/05/17 06:14:04;;;;;;;6.60;3.55;;;;;;;;;;5038768;28;20087;-49
2022/05/17 06:16:30;;;;;;;6.55;3.40;;;;;;;;;;5046695;28;20172;-50
2022/05/17 06:18:56;;;;;;;8.73;3.78;;;;;;;;;;5048553;28;20024;-50
2022/05/17 06:21:22;;;;;;;6.28;4.00;;;;;;;;;;5047034;28;20025;-50
2022/05/17 06:23:48;;;;;;;8.60;3.67;;;;;;;;;;5050459;28;20039;-51
2022/05/17 06:26:14;;;;;;;6.75;3.28;;;;;;;;;;5042826;28;20021;-50
2022/05/17 06:28:40;;;;;;;7.78;3.42;;;;;;;;;;5038999;28;20481;-50
2022/05/17 06:31:06;;;;;;;7.07;3.90;;;;;;;;;;5043269;28;20029;-50
2022/05/17 06:33:32;;;;;;;11.35;4.25;;;;;;;;;;5047128;28;20024;-50
2022/05/17 06:35:58;;;;;;;7.28;4.10;;;;;;;;;;5042454;28;20040;-50
2022/05/17 06:38:24;;;;;;;9.13;3.95;;;;;;;;;;5048441;28;20044;-50
2022/05/17 06:40:50;;;;;;;5.97;3.63;;;;;;;;;;5043782;28;20116;-50
2022/05/17 06:43:16;;;;;;;8.57;4.22;;;;;;;;;;5047099;28;20043;-51
2022/05/17 06:45:42;;;;;;;8.38;4.57;;;;;;;;;;5042726;28;21842;-50
2022/05/17 06:48:08;;;;;;;10.90;4.22;;;;;;;;;;5054200;28;20025;-49
2022/05/17 06:50:34;;;;;;;12.30;4.13;;;;;;;;;;5054618;28;20520;-50
2022/05/17 06:53:03;;;;;;;10.15;4.47;;;;;;;;;;5050488;28;20041;-51
2022/05/17 06:55:29;;;;;;;5.05;3.55;;;;;;;;;;5047227;28;20488;-51
2022/05/17 06:57:55;;;;;;;5.97;4.03;;;;;;;;;;5049710;28;20037;-50
2022/05/17 07:00:21;;;;;;;7.95;4.07;;;;;;;;;;5038058;28;20037;-53
2022/05/17 07:02:47;;;;;;;6.03;4.00;;;;;;;;;;5056076;28;20037;-50
2022/05/17 07:05:13;;;;;;;6.28;3.42;;;;;;;;;;5041291;28;20036;-50
2022/05/17 07:07:39;;;;;;;5.47;3.53;;;;;;;;;;5057819;28;20029;-50
2022/05/17 07:13:09;;;;;;;7.10;3.90;;;;;;;;;;5042953;28;20063;-50
2022/05/17 07:15:36;;;;;;;7.50;3.78;;;;;;;;;;5040774;28;20044;-50
2022/05/17 07:18:02;;;;;;;9.38;3.78;;;;;;;;;;5050054;28;20029;-50
2022/05/17 07:20:28;;;;;;;6.80;3.20;;;;;;;;;;5050458;28;20102;-50
2022/05/17 07:22:54;;;;;;;7.55;3.88;;;;;;;;;;5049134;28;20504;-50
2022/05/17 07:25:20;;;;;;;7.28;3.80;;;;;;;;;;5049378;28;20033;-50
2022/05/17 07:27:46;;;;;;;7.35;3.92;;;;;;;;;;5050676;28;20087;-50
2022/05/17 07:30:13;;;;;;;7.85;4.10;;;;;;;;;;5050356;28;20055;-52
2022/05/17 07:32:39;;;;;;;6.50;3.92;;;;;;;;;;5050796;28;20029;-52
2022/05/17 07:35:06;;;;;;;8.50;3.67;;;;;;;;;;5042039;28;20083;-52
2022/05/17 07:37:33;;;;;;;7.68;3.78;;;;;;;;;;5043851;28;20095;-50
2022/05/17 07:39:59;;;;;;;9.32;3.70;;;;;;;;;;5037977;28;20038;-50
2022/05/17 07:42:25;;;;;;;7.03;3.60;;;;;;;;;;5050271;28;20033;-51
2022/05/17 07:44:51;;;;;;;8.30;3.85;;;;;;;;;;5039401;28;20152;-50
2022/05/17 07:47:17;;;;;;;9.20;3.80;;;;;;;;;;5046135;28;20029;-53
2022/05/17 07:49:43;;;;;;;8.10;4.30;;;;;;;;;;5045821;28;20029;-53
2022/05/17 07:52:10;;;;;;;6.90;4.15;;;;;;;;;;5044451;28;20043;-52
2022/05/17 07:54:37;;;;;;;6.60;3.58;;;;;;;;;;5044404;28;20424;-50
2022/05/17 07:57:04;;;;;;;8.00;4.25;;;;;;;;;;5047032;28;20047;-52
2022/05/17 07:59:29;;;;;;;8.48;4.40;;;;;;;;;;5050450;28;20029;-50
2022/05/17 08:01:55;;;;;;;4.80;3.45;;;;;;;;;;5047625;28;20036;-50
2022/05/17 08:04:23;;;;;;;6.88;3.55;;;;;;;;;;5043799;28;20116;-51
2022/05/17 08:06:49;;;;;;;6.65;4.20;;;;;;;;;;5049319;28;20491;-51
2022/05/17 08:09:15;;;;;;;7.47;3.97;;;;;;;;;;5045156;28;20447;-53
2022/05/17 08:11:41;;;;;;;8.30;3.88;;;;;;;;;;5051673;28;20029;-51
2022/05/17 08:14:08;;;;;;;9.55;3.72;;;;;;;;;;5043799;28;20491;-53
2022/05/17 08:16:34;;;;;;;8.13;3.83;;;;;;;;;;5049034;28;20014;-50
2022/05/17 08:19:00;;;;;;;9.15;3.95;;;;;;;;;;5047099;28;20079;-51
2022/05/17 08:21:26;;;;;;;5.82;3.60;;;;;;;;;;5052461;28;20112;-51
2022/05/17 08:23:52;;;;;;;5.78;3.85;;;;;;;;;;5042030;28;20111;-51
2022/05/17 08:29:03;;;;;;;6.70;3.55;;;;;;;;;;5043739;28;20083;-51
2022/05/17 08:31:29;;;;;;;6.45;3.88;;;;;;;;;;5044716;28;20416;-51
2022/05/17 08:33:55;;;;;;;7.68;3.35;;;;;;;;;;5047717;28;20021;-51
2022/05/17 08:36:21;;;;;;;6.47;3.38;;;;;;;;;;5053664;28;20404;-50
2022/05/17 08:38:48;;;;;;;6.45;3.75;;;;;;;;;;5044383;28;20033;-50
2022/05/17 08:41:24;;;;;;;7.50;3.80;;;;;;;;;;5051039;28;20535;-51
2022/05/17 08:43:55;;;;;;;7.30;4.22;;;;;;;;;;5042591;28;20439;-50
2022/05/17 08:46:26;;;;;;;7.15;3.08;;;;;;;;;;5045246;28;20472;-53
2022/05/17 08:48:52;;;;;;;6.75;3.47;;;;;;;;;;5051833;28;20068;-51
2022/05/17 08:51:25;;;;;;;4.50;2.97;;;;;;;;;;5041362;28;20025;-51
2022/05/17 08:53:51;;;;;;;6.15;3.67;;;;;;;;;;5043532;28;20049;-52
2022/05/17 08:56:17;;;;;;;7.97;3.20;;;;;;;;;;5047015;28;20029;-53
2022/05/17 08:58:46;;;;;;;11.05;3.92;;;;;;;;;;5046673;28;20483;-51
2022/05/17 09:01:17;;;;;;;7.20;2.97;;;;;;;;;;5046318;28;20037;-52
2022/05/17 09:04:10;;;;;;;6.07;2.88;;;;;;;;;;5048130;28;20029;-51
2022/05/17 09:06:41;;;;;;;8.57;3.57;;;;;;;;;;5036350;28;20119;-52
2022/05/17 09:09:09;;;;;;;6.85;3.05;;;;;;;;;;5045911;28;20370;-54
2022/05/17 09:11:38;;;;;;;5.10;2.92;;;;;;;;;;5033920;28;20029;-54
2022/05/17 09:14:14;;;;;;;5.72;3.00;;;;;;;;;;5042146;28;20025;-53
2022/05/17 09:16:42;;;;;;;5.00;2.17;;;;;;;;;;5048444;28;20052;-54
2022/05/17 09:19:08;;;;;;;6.60;3.08;;;;;;;;;;5047861;28;20025;-53
2022/05/17 09:21:37;;;;;;;6.80;3.20;;;;;;;;;;5046887;28;20511;-55
2022/05/17 09:24:04;;;;;;;5.85;3.25;;;;;;;;;;5052544;28;20092;-55
2022/05/17 09:26:31;;;;;;;7.55;3.53;;;;;;;;;;5049111;28;20037;-55
2022/05/17 09:29:02;;;;;;;7.38;2.72;;;;;;;;;;5039100;28;20028;-54
2022/05/17 09:31:32;;;;;;;7.10;3.25;;;;;;;;;;5051696;28;20419;-55
2022/05/17 09:34:00;;;;;;;5.25;2.95;;;;;;;;;;5038489;28;20480;-55
2022/05/17 09:36:29;;;;;;;5.38;2.95;;;;;;;;;;5052084;28;20502;-55
2022/05/17 09:38:55;;;;;;;4.28;2.65;;;;;;;;;;5046775;28;20401;-56
2022/05/17 09:41:26;;;;;;;8.68;2.53;;;;;;;;;;5045047;28;20029;-55
2022/05/17 09:43:54;;;;;;;7.22;2.60;;;;;;;;;;5049509;28;20035;-55
2022/05/17 09:46:30;;;;;;;4.82;2.72;;;;;;;;;;5049679;28;20041;-55
2022/05/17 09:54:39;;;;;;;5.95;3.28;;;;;;;;;;5046688;28;20052;-56
2022/05/17 09:57:11;;;;;;;5.43;2.90;;;;;;;;;;5046639;28;20060;-55
2022/05/17 09:59:37;;;;;;;6.53;2.67;;;;;;;;;;5045863;28;20694;-55
2022/05/17 10:02:03;;;;;;;6.25;2.80;;;;;;;;;;5042601;28;20021;-56
2022/05/17 10:04:30;;;;;;;4.35;2.40;;;;;;;;;;5043310;28;20045;-55
2022/05/17 10:06:56;;;;;;;7.43;3.00;;;;;;;;;;5041135;28;20047;-54
2022/05/17 10:09:35;;;;;;;7.03;3.10;;;;;;;;;;5036261;28;20033;-55
2022/05/17 10:12:05;;;;;;;5.63;2.50;;;;;;;;;;5049122;28;20028;-56
2022/05/17 10:14:43;;;;;;;5.75;2.90;;;;;;;;;;5043651;28;20436;-55
2022/05/17 10:17:09;;;;;;;10.30;3.55;;;;;;;;;;5039410;28;20033;-55
2022/05/17 10:19:35;;;;;;;6.75;3.17;;;;;;;;;;5043784;28;20032;-54
2022/05/17 10:22:12;;;;;;;6.70;3.88;;;;;;;;;;5046719;28;20428;-53
2022/05/17 10:24:49;;;;;;;8.98;3.35;;;;;;;;;;5048572;28;20037;-55
2022/05/17 10:27:15;;;;;;;5.13;3.22;;;;;;;;;;5051446;28;20037;-55
2022/05/17 10:29:45;;;;;;;5.78;2.78;;;;;;;;;;5050842;28;20427;-55
2022/05/17 10:32:14;;;;;;;7.25;2.70;;;;;;;;;;5050293;28;20028;-55
2022/05/17 10:34:46;;;;;;;9.77;3.08;;;;;;;;;;5051194;28;20433;-56
2022/05/17 10:37:18;;;;;;;7.85;3.40;;;;;;;;;;5049515;28;20393;-55
2022/05/17 10:39:53;;;;;;;5.88;3.03;;;;;;;;;;5039929;28;20040;-55
2022/05/17 10:42:20;;;;;;;6.38;3.40;;;;;;;;;;5039763;28;20562;-56
2022/05/17 10:44:50;;;;;;;4.60;2.88;;;;;;;;;;5048948;28;20366;-55
2022/05/17 10:47:35;;;;;;;4.43;2.70;;;;;;;;;;5031066;28;20018;-53
2022/05/17 10:50:11;;;;;;;6.78;2.92;;;;;;;;;;5043205;28;20380;-56
2022/05/17 10:52:50;;;;;;;7.93;3.35;;;;;;;;;;5051728;28;20036;-56
2022/05/17 10:55:17;;;;;;;9.30;3.00;;;;;;;;;;5041029;28;20391;-54
2022/05/17 10:57:48;;;;;;;4.10;2.70;;;;;;;;;;5050508;28;20594;-55
2022/05/17 11:00:22;;;;;;;9.43;3.65;;;;;;;;;;5038457;28;20025;-55
2022/05/17 11:03:07;;;;;;;4.80;3.13;;;;;;;;;;5049133;28;20056;-55
2022/05/17 11:05:45;;;;;;;6.20;2.90;;;;;;;;;;5040434;28;20124;-55
2022/05/17 11:08:18;;;;;;;6.20;2.83;;;;;;;;;;5058944;28;20056;-56
2022/05/17 11:10:54;;;;;;;7.72;2.97;;;;;;;;;;5049774;28;20029;-56
2022/05/17 11:13:35;;;;;;;5.07;2.70;;;;;;;;;;5043701;28;20025;-56
2022/05/17 11:16:13;;;;;;;7.53;2.78;;;;;;;;;;5042739;28;20036;-55
2022/05/17 11:18:45;;;;;;;7.15;2.83;;;;;;;;;;5049129;28;20025;-56
2022/05/17 11:21:17;;;;;;;5.75;2.60;;;;;;;;;;5049352;28;20021;-55
2022/05/17 11:23:47;;;;;;;6.40;2.20;;;;;;;;;;5040760;28;20064;-55
2022/05/17 11:26:33;;;;;;;5.82;2.35;;;;;;;;;;5040298;28;20036;-55
2022/05/17 11:29:18;;;;;;;5.28;2.85;;;;;;;;;;5033517;28;20067;-55
2022/05/17 11:32:02;;;;;;;4.28;2.80;;;;;;;;;;5044132;28;20033;-55
2022/05/17 11:34:28;;;;;;;5.32;2.80;;;;;;;;;;5038071;28;20039;-55
2022/05/17 11:36:56;;;;;;;3.78;2.08;;;;;;;;;;5043416;28;20025;-56
2022/05/17 11:39:31;;;;;;;9.60;2.88;;;;;;;;;;5032227;28;20535;-55
2022/05/17 11:42:20;;;;;;;6.05;2.40;;;;;;;;;;5048536;28;20571;-55
2022/05/17 11:44:49;;;;;;;9.30;2.53;;;;;;;;;;5032529;28;20071;-56
2022/05/17 11:47:33;;;;;;;6.68;3.20;;;;;;;;;;5054687;28;20017;-55
2022/05/17 11:50:22;;;;;;;9.25;2.72;;;;;;;;;;5050779;28;20025;-55
2022/05/17 11:52:49;;;;;;;5.03;2.30;;;;;;;;;;5054003;28;20449;-55
2022/05/17 11:55:19;;;;;;;8.43;3.22;;;;;;;;;;5049201;28;20490;-55
2022/05/17 11:57:48;;;;;;;7.28;2.85;;;;;;;;;;5046549;28;20480;-55
2022/05/17 12:00:27;;;;;;;7.72;3.10;;;;;;;;;;5047062;28;20485;-56
2022/05/17 12:03:01;;;;;;;7.32;3.05;;;;;;;;;;5053290;28;20041;-56
2022/05/17 12:05:43;;;;;;;7.05;3.05;;;;;;;;;;5048945;28;20072;-55
2022/05/17 12:08:27;;;;;;;6.25;3.00;;;;;;;;;;5042107;28;20013;-55
2022/05/17 12:11:04;;;;;;;5.43;2.53;;;;;;;;;;5046791;28;20040;-56
2022/05/17 12:13:32;;;;;;;7.07;2.45;;;;;;;;;;5036363;28;20067;-55
2022/05/17 12:15:58;;;;;;;7.57;3.00;;;;;;;;;;5037480;28;20051;-56
2022/05/17 12:18:38;;;;;;;3.75;3.08;;;;;;;;;;5046684;28;20078;-55
2022/05/17 12:21:20;;;;;;;3.50;2.30;;;;;;;;;;5031447;28;20560;-54
2022/05/17 12:23:49;;;;;;;5.13;2.23;;;;;;;;;;5043871;28;20029;-55
2022/05/17 12:26:22;;;;;;;5.45;2.67;;;;;;;;;;5039867;28;20395;-55
2022/05/17 12:28:52;;;;;;;6.90;2.22;;;;;;;;;;5026113;28;20414;-55
2022/05/17 12:31:28;;;;;;;3.85;2.05;;;;;;;;;;5021252;28;20043;-54
2022/05/17 12:33:55;;;;;;;4.43;2.08;;;;;;;;;;5029548;28;20056;-55
2022/05/17 12:36:21;;;;;;;4.32;2.15;;;;;;;;;;5023250;28;20052;-55
2022/05/17 12:44:26;;;;;;;4.50;2.30;;;;;;;;;;5040224;28;20648;-56
2022/05/17 12:46:54;;;;;;;4.30;2.40;;;;;;;;;;5036560;28;20100;-55
2022/05/17 12:49:24;;;;;;;4.90;2.15;;;;;;;;;;5049369;28;20574;-55
2022/05/17 12:51:51;;;;;;;4.70;2.10;;;;;;;;;;5046871;28;20453;-56
2022/05/17 12:54:24;;;;;;;3.55;2.08;;;;;;;;;;5042069;28;20025;-56
2022/05/17 12:56:50;;;;;;;4.53;1.65;;;;;;;;;;5048556;28;20493;-56
2022/05/17 12:59:24;;;;;;;6.45;2.42;;;;;;;;;;5045541;28;20086;-54
2022/05/17 13:01:54;;;;;;;4.35;1.70;;;;;;;;;;5047221;28;20029;-56
2022/05/17 13:04:25;;;;;;;4.00;2.28;;;;;;;;;;5039881;28;20060;-53
2022/05/17 13:06:51;;;;;;;5.65;2.17;;;;;;;;;;5040683;28;20029;-56
2022/05/17 13:09:25;;;;;;;4.63;1.90;;;;;;;;;;5040134;28;20041;-56
2022/05/17 13:11:52;;;;;;;3.03;1.80;;;;;;;;;;5035043;28;20499;-56
2022/05/17 13:14:32;;;;;;;4.78;1.90;;;;;;;;;;5031721;28;20025;-56
2022/05/17 13:17:06;;;;;;;3.80;2.05;;;;;;;;;;5039607;28;20029;-56
2022/05/17 13:19:34;;;;;;;5.43;2.20;;;;;;;;;;5033884;28;20028;-55
2022/05/17 13:22:00;;;;;;;4.45;1.70;;;;;;;;;;5050832;28;20029;-56
2022/05/17 13:24:35;;;;;;;4.10;1.90;;;;;;;;;;5050158;28;20392;-56
2022/05/17 13:27:06;;;;;;;3.33;1.60;;;;;;;;;;5043419;28;20075;-56
2022/05/17 13:29:33;;;;;;;4.68;1.92;;;;;;;;;;5042277;28;20025;-56
2022/05/17 13:32:01;;;;;;;4.78;2.30;;;;;;;;;;5044588;28;20017;-55
2022/05/17 13:34:28;;;;;;;4.40;1.70;;;;;;;;;;5049203;28;20485;-56
2022/05/17 13:37:03;;;;;;;5.70;2.28;;;;;;;;;;5046550;28;20051;-55
2022/05/17 13:39:30;;;;;;;5.65;2.03;;;;;;;;;;5041614;28;20025;-56
2022/05/17 13:41:57;;;;;;;6.20;2.03;;;;;;;;;;5043273;28;20153;-55
2022/05/17 13:44:46;;;;;;;6.10;2.63;;;;;;;;;;5038383;28;20028;-56
2022/05/17 13:47:21;;;;;;;5.75;2.40;;;;;;;;;;5051580;28;20025;-55
2022/05/17 13:49:47;;;;;;;2.97;1.73;;;;;;;;;;5048710;28;20068;-55
2022/05/17 13:52:25;;;;;;;4.75;2.30;;;;;;;;;;5048327;28;20052;-56
2022/05/17 13:54:53;;;;;;;6.97;2.20;;;;;;;;;;5045449;28;20029;-54
2022/05/17 13:57:23;;;;;;;6.35;1.88;;;;;;;;;;5046930;28;20064;-56
2022/05/17 13:59:52;;;;;;;5.00;2.30;;;;;;;;;;5039914;28;20040;-56
2022/05/17 14:02:31;;;;;;;5.47;2.33;;;;;;;;;;5048444;28;20061;-56
2022/05/17 14:05:06;;;;;;;2.90;1.55;;;;;;;;;;5048626;28;20484;-56
2022/05/17 14:07:34;;;;;;;3.83;1.95;;;;;;;;;;5043975;28;20384;-57
2022/05/17 14:11:49;;;;;;;3.25;1.70;;;;;;;;;;5040042;28;20083;-56
2022/05/17 14:13:22;;;;;;;4.38;2.42;;;;;;;;;;5050666;28;20353;-56
2022/05/17 14:15:48;;;;;;;5.40;2.15;;;;;;;;;;5033096;28;20044;-56
2022/05/17 14:18:24;;;;;;;4.82;1.75;;;;;;;;;;5038091;28;20028;-56
2022/05/17 14:20:50;;;;;;;4.28;2.17;;;;;;;;;;5052745;28;20533;-56
2022/05/17 14:23:16;;;;;;;7.03;2.20;;;;;;;;;;5045386;28;20025;-56
2022/05/17 14:25:42;;;;;;;3.67;2.20;;;;;;;;;;5043827;28;20029;-55
2022/05/17 14:28:08;;;;;;;3.72;2.25;;;;;;;;;;5037819;28;20029;-55
2022/05/17 14:30:36;;;;;;;6.00;2.03;;;;;;;;;;5046935;28;20033;-56
2022/05/17 14:33:02;;;;;;;4.15;2.00;;;;;;;;;;5044035;28;20017;-55
2022/05/17 14:35:30;;;;;;;3.20;1.65;;;;;;;;;;5044224;28;20119;-56
2022/05/17 14:37:56;;;;;;;4.65;2.42;;;;;;;;;;5047556;28;20071;-55
2022/05/17 14:40:22;;;;;;;3.85;2.03;;;;;;;;;;5040658;28;20384;-55
2022/05/17 14:42:48;;;;;;;4.25;2.20;;;;;;;;;;5045685;28;20636;-56
2022/05/17 14:45:15;;;;;;;5.68;2.17;;;;;;;;;;5040281;28;20025;-56
2022/05/17 14:47:41;;;;;;;3.60;1.88;;;;;;;;;;5042508;28;20059;-54
2022/05/17 14:50:08;;;;;;;6.38;1.90;;;;;;;;;;5039632;28;20131;-56
2022/05/17 14:52:34;;;;;;;3.47;2.10;;;;;;;;;;5047137;28;20094;-55
2022/05/17 14:55:00;;;;;;;3.65;2.10;;;;;;;;;;5050949;28;20036;-56
2022/05/17 14:57:26;;;;;;;5.25;2.25;;;;;;;;;;5042206;28;20033;-56
2022/05/17 14:59:52;;;;;;;4.57;2.33;;;;;;;;;;5041346;28;20034;-56
2022/05/17 15:02:18;;;;;;;6.45;2.38;;;;;;;;;;5036046;28;20044;-54
2022/05/17 15:04:45;;;;;;;6.05;2.35;;;;;;;;;;5049136;28;20033;-55
2022/05/17 15:07:17;;;;;;;6.45;2.28;;;;;;;;;;5048103;28;20155;-55
2022/05/17 15:09:45;;;;;;;3.90;2.55;;;;;;;;;;5050687;28;20024;-56
2022/05/17 15:12:11;;;;;;;5.55;2.03;;;;;;;;;;5033213;28;20029;-56
2022/05/17 15:14:37;;;;;;;4.47;1.95;;;;;;;;;;5039061;28;20029;-56